createdAt,value
2018-05-10T00:00:31.991Z,28.47
2018-05-10T00:03:05.406Z,26.67
2018-05-10T00:05:35.307Z,27.17
2018-05-10T00:08:07.848Z,27.77
2018-05-10T00:10:36.330Z,26.63
2018-05-10T00:13:10.691Z,24.67
2018-05-10T00:15:39.204Z,23.73
2018-05-10T00:18:21.114Z,25.60
2018-05-10T00:20:51.254Z,26.63
2018-05-10T00:23:20.481Z,26.87
2018-05-10T00:25:49.004Z,26.20
2018-05-10T00:28:18.979Z,27.37
2018-05-10T00:30:48.610Z,27.93
2018-05-10T00:33:19.425Z,27.03
2018-05-10T00:35:49.288Z,28.00
2018-05-10T00:38:21.818Z,26.57
2018-05-10T00:40:51.118Z,27.47
2018-05-10T00:43:32.446Z,24.80
2018-05-10T00:46:01.804Z,26.13
2018-05-10T00:48:31.107Z,29.10
2018-05-10T00:51:00.972Z,27.33
2018-05-10T00:53:29.427Z,28.40
2018-05-10T00:55:59.278Z,28.73
2018-05-10T00:58:31.499Z,29.60
2018-05-10T01:01:01.116Z,27.43
2018-05-10T01:03:34.227Z,29.53
2018-05-10T01:06:03.873Z,29.57
2018-05-10T01:08:36.354Z,28.57
2018-05-10T01:11:06.276Z,28.47
2018-05-10T01:13:38.875Z,28.53
2018-05-10T01:16:08.365Z,29.83
2018-05-10T01:18:41.504Z,30.07
2018-05-10T01:21:10.610Z,30.67
2018-05-10T01:23:52.218Z,28.87
2018-05-10T01:26:20.952Z,29.53
2018-05-10T01:28:49.513Z,28.43
2018-05-10T01:31:18.764Z,30.07
2018-05-10T01:33:49.690Z,27.33
2018-05-10T01:36:18.584Z,29.63
2018-05-10T01:38:52.347Z,30.37
2018-05-10T01:41:21.896Z,29.50
2018-05-10T01:43:54.050Z,30.00
2018-05-10T01:46:23.702Z,29.87
2018-05-10T01:48:58.751Z,29.20
2018-05-10T01:51:28.728Z,27.77
2018-05-10T01:53:59.564Z,27.27
2018-05-10T01:56:28.831Z,26.50
2018-05-10T01:59:03.044Z,27.00
2018-05-10T02:01:32.813Z,24.60
2018-05-10T02:04:04.810Z,24.73
2018-05-10T02:06:33.659Z,23.13
2018-05-10T02:09:09.455Z,21.27
2018-05-10T02:11:38.964Z,21.40
2018-05-10T02:14:20.043Z,21.30
2018-05-10T02:16:48.810Z,21.73
2018-05-10T02:19:18.311Z,19.60
2018-05-10T02:21:47.801Z,18.97
2018-05-10T02:24:16.567Z,19.10
2018-05-10T02:26:45.783Z,17.43
2018-05-10T02:29:17.717Z,19.77
2018-05-10T02:31:46.424Z,17.77
2018-05-10T02:34:19.415Z,17.80
2018-05-10T02:36:48.702Z,19.33
2018-05-10T02:39:21.730Z,21.60
2018-05-10T02:41:50.213Z,22.63
2018-05-10T02:44:23.935Z,24.30
2018-05-10T02:46:52.415Z,24.33
2018-05-10T02:49:25.256Z,25.50
2018-05-10T02:51:54.768Z,25.73
2018-05-10T02:54:28.677Z,27.57
2018-05-10T02:56:58.655Z,28.27
2018-05-10T02:59:39.587Z,27.17
2018-05-10T03:02:09.063Z,29.63
2018-05-10T03:04:38.639Z,30.03
2018-05-10T03:07:07.531Z,27.07
2018-05-10T03:09:37.407Z,30.90
2018-05-10T03:12:06.263Z,28.87
2018-05-10T03:14:38.637Z,27.77
2018-05-10T03:17:08.423Z,29.37
2018-05-10T03:19:39.927Z,28.57
2018-05-10T03:22:08.846Z,27.30
2018-05-10T03:24:42.244Z,29.47
2018-05-10T03:27:10.703Z,27.63
2018-05-10T03:29:44.912Z,27.93
2018-05-10T03:32:14.031Z,24.33
2018-05-10T03:34:47.122Z,23.67
2018-05-10T03:37:15.610Z,18.33
2018-05-10T03:39:48.750Z,19.67
2018-05-10T03:42:18.224Z,19.07
2018-05-10T03:44:50.959Z,18.67
2018-05-10T03:47:20.131Z,19.23
2018-05-10T03:49:54.794Z,20.63
2018-05-10T03:52:24.680Z,20.03
2018-05-10T03:55:06.763Z,21.40
2018-05-10T03:57:36.251Z,20.27
2018-05-10T04:00:04.835Z,21.20
2018-05-10T04:02:43.342Z,21.77
2018-05-10T04:05:23.828Z,23.00
2018-05-10T04:08:05.031Z,22.00
2018-05-10T04:11:42.402Z,24.63
2018-05-10T04:14:12.374Z,22.40
2018-05-10T04:16:41.127Z,26.50
2018-05-10T04:19:13.118Z,26.70
2018-05-10T04:21:41.627Z,25.97
2018-05-10T04:24:23.102Z,27.40
2018-05-10T04:26:52.627Z,28.80
2018-05-10T04:29:21.819Z,26.83
2018-05-10T04:31:50.272Z,28.67
2018-05-10T04:34:20.226Z,29.70
2018-05-10T04:36:48.959Z,30.43
2018-05-10T04:39:21.039Z,28.80
2018-05-10T04:41:50.647Z,29.50
2018-05-10T04:44:23.350Z,32.10
2018-05-10T04:46:51.872Z,29.40
2018-05-10T04:49:24.828Z,29.20
2018-05-10T04:51:53.936Z,29.90
2018-05-10T04:54:27.465Z,27.20
2018-05-10T04:56:56.958Z,23.67
2018-05-10T04:59:29.923Z,26.07
2018-05-10T05:01:58.794Z,24.93
2018-05-10T05:04:31.595Z,24.67
2018-05-10T05:07:01.780Z,24.10
2018-05-10T05:09:43.007Z,23.70
2018-05-10T05:12:12.761Z,23.97
2018-05-10T05:14:41.998Z,25.17
2018-05-10T05:17:10.861Z,24.87
2018-05-10T05:19:40.014Z,26.00
2018-05-10T05:22:08.854Z,24.10
2018-05-10T05:24:42.350Z,24.83
2018-05-10T05:27:11.103Z,23.40
2018-05-10T05:29:43.678Z,23.23
2018-05-10T05:32:13.202Z,23.63
2018-05-10T05:34:49.188Z,22.40
2018-05-10T05:37:19.055Z,22.27
2018-05-10T05:39:49.438Z,21.67
2018-05-10T05:42:19.407Z,20.60
2018-05-10T05:44:51.454Z,19.03
2018-05-10T05:47:19.923Z,20.07
2018-05-10T05:49:53.720Z,19.93
2018-05-10T05:52:22.483Z,21.83
2018-05-10T05:54:55.158Z,21.20
2018-05-10T05:57:24.754Z,19.70
2018-05-10T05:59:59.225Z,17.73
2018-05-10T06:02:28.840Z,14.30
2018-05-10T06:05:02.225Z,14.83
2018-05-10T06:07:31.138Z,15.03
2018-05-10T06:10:04.330Z,14.83
2018-05-10T06:12:34.119Z,13.57
2018-05-10T06:15:07.229Z,13.83
2018-05-10T06:17:35.696Z,13.27
2018-05-10T06:20:10.286Z,14.83
2018-05-10T06:22:39.549Z,14.60
2018-05-10T06:25:21.616Z,14.23
2018-05-10T06:27:50.095Z,14.63
2018-05-10T06:30:19.974Z,14.13
2018-05-10T06:32:49.938Z,14.43
2018-05-10T06:35:19.571Z,13.97
2018-05-10T06:37:49.116Z,14.53
2018-05-10T06:40:20.829Z,13.77
2018-05-10T06:42:50.368Z,14.53
2018-05-10T06:45:21.904Z,16.77
2018-05-10T06:47:50.389Z,16.10
2018-05-10T06:50:26.220Z,17.00
2018-05-10T06:52:56.098Z,16.37
2018-05-10T06:55:25.750Z,19.60
2018-05-10T06:57:54.651Z,19.17
2018-05-10T07:00:28.678Z,17.17
2018-05-10T07:02:57.578Z,16.00
2018-05-10T07:05:30.656Z,18.53
2018-05-10T07:08:00.164Z,16.57
2018-05-10T07:10:33.195Z,17.63
2018-05-10T07:13:02.529Z,17.57
2018-05-10T07:15:35.684Z,15.53
2018-05-10T07:18:05.769Z,15.37
2018-05-10T07:20:38.780Z,13.97
2018-05-10T07:23:07.591Z,11.83
2018-05-10T07:25:48.973Z,10.33
2018-05-10T07:28:17.872Z,10.93
2018-05-10T07:30:46.403Z,10.73
2018-05-10T07:33:16.043Z,8.60
2018-05-10T07:35:45.367Z,9.20
2018-05-10T07:38:14.615Z,7.13
2018-05-10T07:40:47.281Z,6.80
2018-05-10T07:43:16.774Z,5.30
2018-05-10T07:45:49.965Z,5.17
2018-05-10T07:48:18.843Z,4.13
2018-05-10T07:50:52.323Z,5.10
2018-05-10T07:53:21.612Z,4.63
2018-05-10T07:55:55.403Z,3.30
2018-05-10T07:58:24.136Z,3.40
2018-05-10T08:01:06.578Z,3.33
2018-05-10T08:03:36.126Z,3.63
2018-05-10T08:06:04.687Z,3.87
2018-05-10T08:08:34.180Z,3.80
2018-05-10T08:11:04.223Z,4.20
2018-05-10T08:13:33.881Z,4.37
2018-05-10T08:16:07.604Z,4.80
2018-05-10T08:18:36.404Z,5.47
2018-05-10T08:21:17.622Z,4.87
2018-05-10T08:23:48.798Z,4.73
2018-05-10T08:26:18.830Z,4.30
2018-05-10T08:28:48.863Z,4.10
2018-05-10T08:31:18.605Z,3.30
2018-05-10T08:33:47.082Z,4.67
2018-05-10T08:36:16.389Z,4.40
2018-05-10T08:38:45.196Z,4.67
2018-05-10T08:41:18.311Z,3.70
2018-05-10T08:43:47.812Z,3.67
2018-05-10T08:46:20.637Z,3.27
2018-05-10T08:48:50.246Z,2.60
2018-05-10T08:51:21.875Z,3.60
2018-05-10T08:53:50.687Z,2.87
2018-05-10T08:56:23.750Z,2.37
2018-05-10T08:58:52.243Z,3.10
2018-05-10T09:01:26.635Z,3.07
2018-05-10T09:03:55.878Z,3.23
2018-05-10T09:06:30.319Z,2.80
2018-05-10T09:08:59.173Z,3.30
2018-05-10T09:11:30.303Z,3.63
2018-05-10T09:13:59.179Z,2.87
2018-05-10T09:16:34.733Z,3.80
2018-05-10T09:19:04.039Z,3.30
2018-05-10T09:21:36.499Z,3.70
2018-05-10T09:24:05.005Z,2.90
2018-05-10T09:26:41.094Z,3.10
2018-05-10T09:29:10.368Z,2.87
2018-05-10T09:31:42.690Z,3.10
2018-05-10T09:34:11.926Z,3.27
2018-05-10T09:36:44.595Z,3.00
2018-05-10T09:39:14.707Z,2.93
2018-05-10T09:41:45.969Z,2.90
2018-05-10T09:44:15.172Z,3.10
2018-05-10T09:46:51.490Z,3.10
2018-05-10T09:49:20.818Z,3.10
2018-05-10T09:51:52.489Z,3.47
2018-05-10T09:54:20.972Z,3.20
2018-05-10T09:56:55.316Z,3.47
2018-05-10T09:59:23.843Z,3.60
2018-05-10T10:01:56.667Z,4.87
2018-05-10T10:04:25.151Z,4.00
2018-05-10T10:06:59.894Z,4.43
2018-05-10T10:09:29.472Z,4.60
2018-05-10T10:12:02.711Z,4.77
2018-05-10T10:14:31.196Z,5.40
2018-05-10T10:17:04.724Z,5.17
2018-05-10T10:19:34.030Z,5.33
2018-05-10T10:22:07.051Z,4.70
2018-05-10T10:24:37.066Z,4.30
2018-05-10T10:27:11.504Z,5.03
2018-05-10T10:29:40.449Z,5.40
2018-05-10T10:32:21.970Z,7.43
2018-05-10T10:34:51.611Z,7.30
2018-05-10T10:37:20.866Z,8.00
2018-05-10T10:39:49.417Z,7.63
2018-05-10T10:42:19.260Z,9.13
2018-05-10T10:44:47.749Z,8.67
2018-05-10T10:47:19.575Z,8.93
2018-05-10T10:49:49.276Z,9.43
2018-05-10T10:52:20.258Z,9.20
2018-05-10T10:54:49.107Z,9.90
2018-05-10T10:57:23.090Z,9.43
2018-05-10T10:59:52.621Z,10.23
2018-05-10T11:02:25.720Z,9.93
2018-05-10T11:04:54.395Z,10.03
2018-05-10T11:07:28.144Z,9.67
2018-05-10T11:10:35.911Z,10.90
2018-05-10T11:13:04.422Z,9.63
2018-05-10T11:15:35.760Z,10.00
2018-05-10T11:18:04.250Z,13.67
2018-05-10T11:20:36.925Z,9.90
2018-05-10T11:23:05.758Z,9.20
2018-05-10T11:25:36.580Z,12.07
2018-05-10T11:28:05.096Z,10.07
2018-05-10T11:30:39.487Z,10.60
2018-05-10T11:33:09.547Z,11.83
2018-05-10T11:35:43.058Z,11.20
2018-05-10T11:38:11.935Z,11.20
2018-05-10T11:43:12.467Z,12.50
2018-05-10T11:45:46.503Z,12.13
2018-05-10T11:48:15.249Z,12.23
2018-05-10T11:50:48.935Z,11.93
2018-05-10T11:53:17.577Z,12.80
2018-05-10T11:55:59.432Z,12.47
2018-05-10T11:58:29.559Z,11.97
2018-05-10T12:00:58.834Z,12.17
2018-05-10T12:03:28.345Z,13.13
2018-05-10T12:05:57.460Z,12.30
2018-05-10T12:08:26.691Z,13.57
2018-05-10T12:10:58.847Z,15.57
2018-05-10T12:13:28.698Z,15.43
2018-05-10T12:16:00.725Z,15.83
2018-05-10T12:18:29.588Z,14.93
2018-05-10T12:21:12.360Z,16.63
2018-05-10T12:23:40.883Z,17.83
2018-05-10T12:26:09.439Z,17.67
2018-05-10T12:28:39.327Z,16.40
2018-05-10T12:31:12.942Z,17.30
2018-05-10T12:33:41.690Z,17.10
2018-05-10T12:36:12.560Z,16.27
2018-05-10T12:38:41.041Z,16.33
2018-05-10T12:41:13.767Z,15.80
2018-05-10T12:43:42.579Z,15.70
2018-05-10T12:46:15.515Z,15.33
2018-05-10T12:48:45.189Z,15.83
2018-05-10T12:51:18.756Z,16.10
2018-05-10T12:53:48.057Z,15.07
2018-05-10T12:56:20.878Z,15.57
2018-05-10T12:58:49.776Z,16.50
2018-05-10T13:01:23.822Z,16.53
2018-05-10T13:03:52.339Z,14.33
2018-05-10T13:06:25.269Z,16.40
2018-05-10T13:08:54.112Z,14.83
2018-05-10T13:11:26.848Z,14.73
2018-05-10T13:13:56.923Z,15.10
2018-05-10T13:16:30.049Z,14.47
2018-05-10T13:18:59.881Z,15.77
2018-05-10T13:21:33.042Z,15.83
2018-05-10T13:24:03.723Z,14.60
2018-05-10T13:26:33.254Z,14.77
2018-05-10T13:29:01.827Z,14.87
2018-05-10T13:31:37.503Z,13.97
2018-05-10T13:34:06.379Z,14.07
2018-05-10T13:36:39.638Z,14.63
2018-05-10T13:39:11.681Z,13.00
2018-05-10T13:41:42.144Z,13.43
2018-05-10T13:44:10.723Z,13.23
2018-05-10T13:46:43.823Z,13.00
2018-05-10T13:49:12.670Z,12.57
2018-05-10T13:51:55.677Z,12.00
2018-05-10T13:54:24.520Z,12.13
2018-05-10T13:56:54.373Z,10.57
2018-05-10T13:59:23.567Z,9.43
2018-05-10T14:01:58.116Z,7.57
2018-05-10T14:04:27.503Z,6.50
2018-05-10T14:07:07.210Z,6.33
2018-05-10T14:09:37.051Z,7.13
2018-05-10T14:12:06.416Z,6.80
2018-05-10T14:14:37.106Z,6.30
2018-05-10T14:17:05.978Z,5.37
2018-05-10T14:19:35.871Z,6.33
2018-05-10T14:22:05.643Z,6.30
2018-05-10T14:24:36.954Z,6.60
2018-05-10T14:27:07.025Z,6.53
2018-05-10T14:29:35.536Z,6.10
2018-05-10T14:32:07.235Z,7.40
2018-05-10T14:34:37.056Z,6.47
2018-05-10T14:37:13.311Z,6.27
2018-05-10T14:39:42.643Z,6.80
2018-05-10T14:42:13.267Z,5.43
2018-05-10T14:44:41.950Z,6.30
2018-05-10T14:47:15.364Z,6.00
2018-05-10T14:49:44.577Z,5.57
2018-05-10T14:52:21.824Z,5.20
2018-05-10T14:54:51.804Z,5.40
2018-05-10T14:57:22.452Z,6.07
2018-05-10T14:59:52.016Z,5.77
2018-05-10T15:02:22.427Z,5.70
2018-05-10T15:04:51.466Z,5.73
2018-05-10T15:07:24.474Z,7.83
2018-05-10T15:09:54.476Z,7.27
2018-05-10T15:12:35.328Z,5.33
2018-05-10T15:15:04.580Z,17.40
2018-05-10T15:17:34.563Z,8.03
2018-05-10T15:20:04.395Z,5.93
2018-05-10T15:22:33.338Z,6.03
2018-05-10T15:25:02.722Z,5.93
2018-05-10T15:27:40.999Z,6.00
2018-05-10T15:30:11.454Z,6.57
2018-05-10T15:32:39.943Z,6.17
2018-05-10T15:35:10.488Z,6.07
2018-05-10T15:37:39.813Z,5.40
2018-05-10T15:40:09.835Z,5.83
2018-05-10T15:42:39.418Z,5.13
2018-05-10T15:45:08.322Z,5.37
2018-05-10T15:47:41.852Z,6.00
2018-05-10T15:50:11.487Z,5.70
2018-05-10T15:52:52.315Z,5.77
2018-05-10T15:55:21.610Z,5.27
2018-05-10T15:57:51.490Z,6.10
2018-05-10T16:00:21.503Z,6.03
2018-05-10T16:02:50.028Z,5.57
2018-05-10T16:05:20.475Z,6.33
2018-05-10T16:07:53.203Z,5.90
2018-05-10T16:10:21.707Z,6.10
2018-05-10T16:12:57.588Z,5.90
2018-05-10T16:15:26.080Z,5.47
2018-05-10T16:17:57.304Z,6.30
2018-05-10T16:20:26.965Z,5.57
2018-05-10T16:23:00.214Z,5.70
2018-05-10T16:25:29.499Z,4.83
2018-05-10T16:28:11.772Z,5.67
2018-05-10T16:30:40.940Z,5.40
2018-05-10T16:33:10.405Z,5.97
2018-05-10T16:35:39.356Z,6.23
2018-05-10T16:38:08.167Z,6.27
2018-05-10T16:40:38.315Z,5.80
2018-05-10T16:43:11.043Z,5.83
2018-05-10T16:45:39.901Z,5.43
2018-05-10T16:48:13.971Z,5.87
2018-05-10T16:50:43.495Z,5.77
2018-05-10T16:53:16.348Z,5.63
2018-05-10T16:55:45.799Z,5.90
2018-05-10T16:58:18.610Z,6.37
2018-05-10T17:00:47.515Z,6.60
2018-05-10T17:03:22.452Z,6.03
2018-05-10T17:05:51.939Z,6.00
2018-05-10T17:08:22.179Z,6.10
2018-05-10T17:10:50.719Z,5.90
2018-05-10T17:13:24.028Z,6.47
2018-05-10T17:15:52.610Z,6.23
2018-05-10T17:18:26.587Z,6.23
2018-05-10T17:20:56.147Z,6.57
2018-05-10T17:23:29.570Z,5.87
2018-05-10T17:25:59.236Z,5.37
2018-05-10T17:28:30.061Z,5.20
2018-05-10T17:30:59.972Z,5.00
2018-05-10T17:33:43.293Z,4.90
2018-05-10T17:36:12.257Z,5.30
2018-05-10T17:38:41.519Z,5.53
2018-05-10T17:41:11.571Z,6.30
2018-05-10T17:43:41.009Z,5.17
2018-05-10T17:46:10.336Z,5.40
2018-05-10T17:48:43.013Z,6.43
2018-05-10T17:51:11.812Z,5.47
2018-05-10T17:53:46.983Z,5.60
2018-05-10T17:56:16.552Z,5.63
2018-05-10T17:58:46.128Z,5.27
2018-05-10T18:01:15.883Z,4.73
2018-05-10T18:03:49.232Z,4.83
2018-05-10T18:06:19.254Z,4.83
2018-05-10T18:08:50.391Z,5.20
2018-05-10T18:11:21.018Z,4.80
2018-05-10T18:13:52.427Z,4.90
2018-05-10T18:16:21.009Z,5.10
2018-05-10T18:19:03.144Z,4.70
2018-05-10T18:21:32.660Z,4.23
2018-05-10T18:24:01.920Z,4.93
2018-05-10T18:26:31.195Z,4.47
2018-05-10T18:29:00.655Z,4.43
2018-05-10T18:31:29.423Z,4.10
2018-05-10T18:34:03.071Z,4.30
2018-05-10T18:36:32.447Z,4.23
2018-05-10T18:39:05.424Z,5.03
2018-05-10T18:41:34.816Z,4.97
2018-05-10T18:44:08.973Z,4.90
2018-05-10T18:46:38.742Z,4.20
2018-05-10T18:49:11.867Z,4.20
2018-05-10T18:51:41.534Z,4.00
2018-05-10T18:54:23.635Z,4.73
2018-05-10T18:56:53.464Z,3.83
2018-05-10T18:59:23.019Z,5.00
2018-05-10T19:01:51.772Z,3.97
2018-05-10T19:04:20.960Z,4.77
2018-05-10T19:06:50.830Z,4.00
2018-05-10T19:09:22.418Z,4.07
2018-05-10T19:11:52.218Z,4.30
2018-05-10T19:14:24.537Z,4.30
2018-05-10T19:16:54.681Z,3.83
2018-05-10T19:19:25.694Z,3.73
2018-05-10T19:21:54.973Z,4.30
2018-05-10T19:24:27.531Z,3.70
2018-05-10T19:26:57.983Z,3.90
2018-05-10T19:29:29.902Z,4.30
2018-05-10T19:31:59.220Z,3.87
2018-05-10T19:34:34.673Z,4.10
2018-05-10T19:37:04.503Z,4.57
2018-05-10T19:39:34.750Z,3.93
2018-05-10T19:42:05.310Z,4.00
2018-05-10T19:44:36.583Z,3.77
2018-05-10T19:47:05.870Z,4.13
2018-05-10T19:49:39.731Z,4.13
2018-05-10T19:52:09.601Z,4.47
2018-05-10T19:54:51.715Z,3.80
2018-05-10T19:57:21.514Z,3.97
2018-05-10T19:59:51.023Z,4.40
2018-05-10T20:02:20.621Z,3.40
2018-05-10T20:04:49.425Z,3.70
2018-05-10T20:07:17.909Z,4.10
2018-05-10T20:09:51.395Z,3.90
2018-05-10T20:12:20.908Z,3.90
2018-05-10T20:14:53.781Z,3.67
2018-05-10T20:17:23.275Z,3.50
2018-05-10T20:19:57.113Z,3.80
2018-05-10T20:22:25.619Z,3.70
2018-05-10T20:25:00.048Z,3.53
2018-05-10T20:27:30.266Z,3.60
2018-05-10T20:30:02.893Z,3.70
2018-05-10T20:32:31.903Z,4.13
2018-05-10T20:35:04.670Z,3.80
2018-05-10T20:37:35.129Z,3.90
2018-05-10T20:40:06.965Z,3.70
2018-05-10T20:42:36.940Z,3.97
2018-05-10T20:45:12.170Z,4.17
2018-05-10T20:47:42.357Z,4.20
2018-05-10T20:50:13.875Z,4.20
2018-05-10T20:52:43.369Z,4.43
2018-05-10T20:55:15.291Z,3.90
2018-05-10T20:57:44.978Z,4.60
2018-05-10T21:00:17.871Z,5.73
2018-05-10T21:02:50.878Z,4.60
2018-05-10T21:05:21.460Z,5.17
2018-05-10T21:07:50.990Z,5.00
2018-05-10T21:10:22.637Z,4.27
2018-05-10T21:12:51.106Z,5.27
2018-05-10T21:15:32.331Z,5.40
2018-05-10T21:18:01.161Z,5.60
2018-05-10T21:20:30.707Z,5.57
2018-05-10T21:22:59.339Z,5.77
2018-05-10T21:25:28.468Z,5.80
2018-05-10T21:27:57.311Z,5.50
2018-05-10T21:30:39.415Z,6.30
2018-05-10T21:33:09.372Z,5.33
2018-05-10T21:35:38.881Z,6.20
2018-05-10T21:38:08.406Z,6.87
2018-05-10T21:40:37.712Z,6.30
2018-05-10T21:43:07.366Z,5.93
2018-05-10T21:45:37.209Z,6.53
2018-05-10T21:48:06.970Z,6.70
2018-05-10T21:50:49.278Z,5.73
2018-05-10T21:53:18.043Z,6.07
2018-05-10T21:55:46.995Z,6.00
2018-05-10T21:58:17.087Z,6.13
2018-05-10T22:00:48.849Z,6.40
2018-05-10T22:03:18.365Z,5.87
2018-05-10T22:05:51.950Z,6.57
2018-05-10T22:08:21.775Z,6.73
2018-05-10T22:10:53.640Z,6.90
2018-05-10T22:13:23.451Z,7.13
2018-05-10T22:15:54.173Z,7.37
2018-05-10T22:18:24.479Z,8.00
2018-05-10T22:20:55.470Z,7.27
2018-05-10T22:23:25.047Z,7.67
2018-05-10T22:25:55.819Z,7.90
2018-05-10T22:28:25.578Z,8.27
2018-05-10T22:30:59.015Z,8.60
2018-05-10T22:33:28.244Z,8.53
2018-05-10T22:36:09.661Z,7.83
2018-05-10T22:38:39.571Z,8.03
2018-05-10T22:41:09.706Z,8.37
2018-05-10T22:43:38.271Z,8.33
2018-05-10T22:46:08.179Z,7.80
2018-05-10T22:48:37.959Z,7.80
2018-05-10T22:51:10.440Z,7.93
2018-05-10T22:53:39.861Z,8.10
2018-05-10T22:56:22.295Z,8.20
2018-05-10T22:58:52.019Z,8.10
2018-05-10T23:01:20.997Z,7.70
2018-05-10T23:03:49.590Z,8.40
2018-05-10T23:06:19.891Z,6.57
2018-05-10T23:08:49.536Z,7.47
2018-05-10T23:11:20.192Z,7.40
2018-05-10T23:13:51.398Z,7.30
2018-05-10T23:16:23.141Z,7.43
2018-05-10T23:18:51.756Z,7.13
2018-05-10T23:21:24.698Z,7.73
2018-05-10T23:23:55.444Z,6.97
2018-05-10T23:26:27.510Z,7.30
2018-05-10T23:28:56.260Z,7.30
2018-05-10T23:31:29.991Z,7.77
2018-05-10T23:33:59.280Z,8.30
2018-05-10T23:36:31.626Z,7.03
2018-05-10T23:39:00.878Z,7.27
2018-05-10T23:41:33.343Z,7.77
2018-05-10T23:44:02.444Z,8.13
2018-05-10T23:46:36.133Z,7.90
2018-05-10T23:49:06.005Z,7.50
2018-05-10T23:51:38.453Z,7.40
2018-05-10T23:54:07.996Z,7.63
2018-05-10T23:56:41.054Z,7.60
2018-05-10T23:59:10.811Z,6.93
